Time;durP1;ratioP1;P1;durP2;ratioP2;P2;SDS_P1;SDS_P2;PMS_P1;PMS_P2;Temp;Humidity;BMP_temperature;BMP_pressure;BME280_temperature;BME280_humidity;BME280_pressure;Samples;Min_cycle;Max_cycle;Signal;HPM_P1;HPM_P2
2022/04/11 00:01:21;;;;;;;;;;;3.00;99.90;;;;;;5091488;28;19908;-46
2022/04/11 00:03:47;;;;;;;;;;;3.00;99.90;;;;;;5092341;28;20480;-48
2022/04/11 00:06:12;;;;;;;;;;;2.90;99.90;;;;;;5092159;28;19934;-48
2022/04/11 00:08:38;;;;;;;;;;;2.90;99.90;;;;;;5091443;28;19909;-49
2022/04/11 00:11:04;;;;;;;;;;;2.90;99.90;;;;;;5095625;28;19908;-50
2022/04/11 00:13:29;;;;;;;;;;;2.90;99.90;;;;;;5095754;28;20377;-47
2022/04/11 00:15:55;;;;;;;;;;;2.80;99.90;;;;;;5094906;28;19949;-47
2022/04/11 00:18:20;;;;;;;;;;;2.80;99.90;;;;;;5095728;28;19908;-49
2022/04/11 00:20:47;;;;;;;;;;;2.70;99.90;;;;;;5095585;28;19915;-49
2022/04/11 00:23:13;;;;;;;;;;;2.70;99.90;;;;;;5094333;28;19915;-50
2022/04/11 00:25:38;;;;;;;;;;;2.70;99.90;;;;;;5095618;28;20349;-49
2022/04/11 00:28:03;;;;;;;;;;;2.70;99.90;;;;;;5095468;28;19953;-48
2022/04/11 00:30:29;;;;;;;;;;;2.70;99.90;;;;;;5094365;28;19908;-48
2022/04/11 00:32:54;;;;;;;;;;;2.70;99.90;;;;;;5095598;28;20393;-47
2022/04/11 00:35:20;;;;;;;;;;;2.70;99.90;;;;;;5095342;28;19916;-47
2022/04/11 00:37:45;;;;;;;;;;;2.70;99.90;;;;;;5094473;28;20019;-49
2022/04/11 00:40:11;;;;;;;;;;;2.70;99.90;;;;;;5095308;28;20011;-48
2022/04/11 00:42:37;;;;;;;;;;;2.70;99.90;;;;;;5094875;28;19913;-50
2022/04/11 00:45:03;;;;;;;;;;;2.60;99.90;;;;;;5094458;28;19908;-47
2022/04/11 00:47:29;;;;;;;;;;;2.60;99.90;;;;;;5095187;28;20074;-47
2022/04/11 00:50:05;;;;;;;;;;;2.60;99.90;;;;;;5095460;28;20044;-49
2022/04/11 00:52:32;;;;;;;;;;;2.60;99.90;;;;;;5094322;28;20651;-46
2022/04/11 00:54:57;;;;;;;;;;;2.50;99.90;;;;;;5095091;28;20014;-46
2022/04/11 00:57:23;;;;;;;;;;;2.50;99.90;;;;;;5094956;28;20009;-47
2022/04/11 00:59:49;;;;;;;;;;;2.50;99.90;;;;;;5094049;28;20294;-47
2022/04/11 01:02:14;;;;;;;;;;;2.50;99.90;;;;;;5094878;28;19912;-48
2022/04/11 01:04:41;;;;;;;;;;;2.50;99.90;;;;;;5094081;28;19908;-49
2022/04/11 01:07:07;;;;;;;;;;;2.50;99.90;;;;;;5094854;28;19908;-49
2022/04/11 01:09:34;;;;;;;;;;;2.50;99.90;;;;;;5094333;28;19966;-48
2022/04/11 01:12:00;;;;;;;;;;;2.50;99.90;;;;;;5093837;28;20379;-51
2022/04/11 01:14:26;;;;;;;;;;;2.40;99.90;;;;;;5094560;28;19953;-49
2022/04/11 01:16:52;;;;;;;;;;;2.40;99.90;;;;;;5094259;28;20317;-50
2022/04/11 01:19:19;;;;;;;;;;;2.40;99.90;;;;;;5093687;28;19912;-45
2022/04/11 01:21:47;;;;;;;;;;;2.50;99.90;;;;;;5093793;28;19923;-50
2022/04/11 01:24:13;;;;;;;;;;;2.40;99.90;;;;;;5094469;28;19947;-47
2022/04/11 01:26:38;;;;;;;;;;;2.40;99.90;;;;;;5093600;28;20359;-47
2022/04/11 01:29:04;;;;;;;;;;;2.40;99.90;;;;;;5094435;28;20267;-46
2022/04/11 01:31:30;;;;;;;;;;;2.40;99.90;;;;;;5093281;28;19908;-46
2022/04/11 01:33:56;;;;;;;;;;;2.40;99.90;;;;;;5093472;28;20287;-49
2022/04/11 01:36:22;;;;;;;;;;;2.40;99.90;;;;;;5093892;28;19920;-47
2022/04/11 01:38:47;;;;;;;;;;;2.40;99.90;;;;;;5094311;28;19908;-48
2022/04/11 01:41:13;;;;;;;;;;;2.30;99.90;;;;;;5093360;28;19912;-47
2022/04/11 01:43:38;;;;;;;;;;;2.30;99.90;;;;;;5094151;28;20083;-48
2022/04/11 01:46:04;;;;;;;;;;;2.30;99.90;;;;;;5094187;28;20041;-49
2022/04/11 01:48:29;;;;;;;;;;;2.30;99.90;;;;;;5093125;28;19908;-49
2022/04/11 01:50:55;;;;;;;;;;;2.40;99.90;;;;;;5094081;28;20260;-49
2022/04/11 01:53:20;;;;;;;;;;;2.40;99.90;;;;;;5093915;28;20012;-48
2022/04/11 01:55:46;;;;;;;;;;;2.40;99.90;;;;;;5093036;28;19916;-49
2022/04/11 01:58:12;;;;;;;;;;;2.40;99.90;;;;;;5093725;28;19908;-46
2022/04/11 02:00:38;;;;;;;;;;;2.40;99.90;;;;;;5093424;28;19912;-52
2022/04/11 02:03:04;;;;;;;;;;;2.40;99.90;;;;;;5093114;28;19912;-46
2022/04/11 02:05:30;;;;;;;;;;;2.40;99.90;;;;;;5093725;28;19966;-48
2022/04/11 02:07:56;;;;;;;;;;;2.40;99.90;;;;;;5092641;28;20376;-46
2022/04/11 02:10:22;;;;;;;;;;;2.30;99.90;;;;;;5093504;28;20367;-48
2022/04/11 02:12:47;;;;;;;;;;;2.30;99.90;;;;;;5093612;28;19912;-45
2022/04/11 02:15:13;;;;;;;;;;;2.30;99.90;;;;;;5092666;28;19924;-47
2022/04/11 02:17:38;;;;;;;;;;;2.30;99.90;;;;;;5093634;28;20431;-46
2022/04/11 02:20:05;;;;;;;;;;;2.30;99.90;;;;;;5093611;28;20427;-48
2022/04/11 02:22:42;;;;;;;;;;;2.30;99.90;;;;;;5092611;28;19908;-48
2022/04/11 02:25:08;;;;;;;;;;;2.20;99.90;;;;;;5093388;28;20052;-49
2022/04/11 02:27:33;;;;;;;;;;;2.30;99.90;;;;;;5093301;28;20405;-48
2022/04/11 02:29:59;;;;;;;;;;;2.30;99.90;;;;;;5092132;28;20379;-46
2022/04/11 02:32:24;;;;;;;;;;;2.30;99.90;;;;;;5093109;28;20374;-49
2022/04/11 02:34:49;;;;;;;;;;;2.30;99.90;;;;;;5093193;28;20371;-49
2022/04/11 02:37:15;;;;;;;;;;;2.30;99.90;;;;;;5092196;28;20314;-46
2022/04/11 02:39:40;;;;;;;;;;;2.20;99.90;;;;;;5093087;28;20302;-50
2022/04/11 02:42:06;;;;;;;;;;;2.20;99.90;;;;;;5093170;28;20263;-49
2022/04/11 02:44:31;;;;;;;;;;;2.20;99.90;;;;;;5092304;28;20294;-45
2022/04/11 02:46:57;;;;;;;;;;;2.20;99.90;;;;;;5093132;28;19908;-48
2022/04/11 02:49:23;;;;;;;;;;;2.20;99.90;;;;;;5093026;28;19908;-50
2022/04/11 02:51:48;;;;;;;;;;;2.20;99.90;;;;;;5092295;28;19961;-50
2022/04/11 02:54:14;;;;;;;;;;;2.20;99.90;;;;;;5092784;28;19995;-45
2022/04/11 02:56:39;;;;;;;;;;;2.30;99.90;;;;;;5092982;28;20325;-47
2022/04/11 02:59:04;;;;;;;;;;;2.20;99.90;;;;;;5092212;28;19926;-46
2022/04/11 03:01:30;;;;;;;;;;;2.20;99.90;;;;;;5092375;28;19919;-47
2022/04/11 03:03:55;;;;;;;;;;;2.20;99.90;;;;;;5092855;28;19908;-47
2022/04/11 03:06:21;;;;;;;;;;;2.20;99.90;;;;;;5091998;28;19915;-50
2022/04/11 03:08:47;;;;;;;;;;;2.20;99.90;;;;;;5092800;28;19931;-49
2022/04/11 03:11:12;;;;;;;;;;;2.20;99.90;;;;;;5092083;28;19908;-46
2022/04/11 03:13:38;;;;;;;;;;;2.10;99.90;;;;;;5092860;28;19909;-49
2022/04/11 03:16:04;;;;;;;;;;;2.10;99.90;;;;;;5092749;28;20061;-47
2022/04/11 03:18:29;;;;;;;;;;;2.10;99.90;;;;;;5091813;28;20327;-50
2022/04/11 03:20:54;;;;;;;;;;;2.10;99.90;;;;;;5092794;28;19916;-47
2022/04/11 03:23:20;;;;;;;;;;;2.10;99.90;;;;;;5092651;28;19912;-49
2022/04/11 03:25:45;;;;;;;;;;;2.10;99.90;;;;;;5091940;28;19915;-49
2022/04/11 03:28:11;;;;;;;;;;;2.10;99.90;;;;;;5092685;28;19919;-49
2022/04/11 03:30:36;;;;;;;;;;;2.10;99.90;;;;;;5092250;28;19912;-45
2022/04/11 03:33:02;;;;;;;;;;;2.00;99.90;;;;;;5091636;28;20011;-47
2022/04/11 03:35:27;;;;;;;;;;;2.00;99.90;;;;;;5092443;28;19924;-52
2022/04/11 03:37:53;;;;;;;;;;;2.00;99.90;;;;;;5092399;28;20287;-49
2022/04/11 03:40:18;;;;;;;;;;;2.00;99.90;;;;;;5091708;28;19916;-47
2022/04/11 03:42:44;;;;;;;;;;;2.00;99.90;;;;;;5092496;28;19909;-47
2022/04/11 03:45:11;;;;;;;;;;;2.00;99.90;;;;;;5094524;28;20003;-48
2022/04/11 03:47:37;;;;;;;;;;;2.00;99.90;;;;;;5095801;28;19912;-49
2022/04/11 03:50:03;;;;;;;;;;;2.00;99.90;;;;;;5096337;28;19978;-49
2022/04/11 03:52:28;;;;;;;;;;;2.00;99.90;;;;;;5096138;28;19908;-48
2022/04/11 03:54:54;;;;;;;;;;;2.10;99.90;;;;;;5095330;28;19962;-50
2022/04/11 03:57:20;;;;;;;;;;;2.10;99.90;;;;;;5096217;28;19957;-50
2022/04/11 03:59:45;;;;;;;;;;;2.20;99.90;;;;;;5096051;28;20394;-48
2022/04/11 04:02:11;;;;;;;;;;;2.20;99.90;;;;;;5095301;28;20267;-50
2022/04/11 04:04:36;;;;;;;;;;;2.20;99.90;;;;;;5096027;28;19912;-47
2022/04/11 04:07:02;;;;;;;;;;;2.20;99.90;;;;;;5096026;28;19923;-51
2022/04/11 04:09:27;;;;;;;;;;;2.20;99.90;;;;;;5095079;28;19932;-47
2022/04/11 04:11:53;;;;;;;;;;;2.20;99.90;;;;;;5096029;28;20057;-49
2022/04/11 04:14:19;;;;;;;;;;;2.20;99.90;;;;;;5095863;28;20166;-49
2022/04/11 04:16:44;;;;;;;;;;;2.30;99.90;;;;;;5095223;28;20418;-51
2022/04/11 04:19:10;;;;;;;;;;;2.30;99.90;;;;;;5095562;28;20297;-49
2022/04/11 04:21:36;;;;;;;;;;;2.30;99.90;;;;;;5093943;28;19951;-47
2022/04/11 04:24:01;;;;;;;;;;;2.30;99.90;;;;;;5094705;28;19997;-51
2022/04/11 04:26:27;;;;;;;;;;;2.40;99.90;;;;;;5094565;28;19908;-46
2022/04/11 04:28:52;;;;;;;;;;;2.40;99.90;;;;;;5093298;28;19912;-49
2022/04/11 04:31:18;;;;;;;;;;;2.50;99.90;;;;;;5094548;28;19962;-46
2022/04/11 04:33:43;;;;;;;;;;;2.40;99.90;;;;;;5094628;28;19986;-51
2022/04/11 04:36:09;;;;;;;;;;;2.50;99.90;;;;;;5093489;28;20366;-47
2022/04/11 04:38:34;;;;;;;;;;;2.50;99.90;;;;;;5094474;28;20331;-50
2022/04/11 04:41:00;;;;;;;;;;;2.50;99.90;;;;;;5094621;28;19912;-46
2022/04/11 04:43:25;;;;;;;;;;;2.50;99.90;;;;;;5093628;28;19909;-51
2022/04/11 04:45:51;;;;;;;;;;;2.50;99.90;;;;;;5094405;28;19908;-49
2022/04/11 04:48:17;;;;;;;;;;;2.50;99.90;;;;;;5094314;28;19915;-48
2022/04/11 04:50:42;;;;;;;;;;;2.50;99.90;;;;;;5093431;28;19908;-48
2022/04/11 04:53:07;;;;;;;;;;;2.50;99.90;;;;;;5094104;28;19973;-48
2022/04/11 04:55:33;;;;;;;;;;;2.50;99.90;;;;;;5093576;28;19973;-48
2022/04/11 04:57:58;;;;;;;;;;;2.60;99.90;;;;;;5092496;28;20190;-47
2022/04/11 05:00:24;;;;;;;;;;;2.60;99.90;;;;;;5093851;28;19938;-50
2022/04/11 05:02:49;;;;;;;;;;;2.60;99.90;;;;;;5094174;28;20043;-53
2022/04/11 05:05:15;;;;;;;;;;;2.60;99.90;;;;;;5092801;28;20244;-50
2022/04/11 05:07:40;;;;;;;;;;;2.70;99.90;;;;;;5093817;28;19912;-48
2022/04/11 05:10:06;;;;;;;;;;;2.80;99.90;;;;;;5093949;28;19961;-47
2022/04/11 05:12:42;;;;;;;;;;;2.80;99.90;;;;;;5092980;28;19995;-49
2022/04/11 05:15:08;;;;;;;;;;;2.80;99.90;;;;;;5093813;28;19916;-49
2022/04/11 05:17:33;;;;;;;;;;;2.80;99.90;;;;;;5093260;28;19937;-45
2022/04/11 05:19:59;;;;;;;;;;;2.90;99.90;;;;;;5092884;28;19908;-48
2022/04/11 05:22:24;;;;;;;;;;;2.90;99.90;;;;;;5093450;28;19923;-47
2022/04/11 05:24:50;;;;;;;;;;;2.90;99.90;;;;;;5092913;28;19908;-48
2022/04/11 05:27:15;;;;;;;;;;;2.90;99.90;;;;;;5093587;28;19909;-49
2022/04/11 05:29:40;;;;;;;;;;;2.90;99.90;;;;;;5093546;28;20363;-48
2022/04/11 05:32:06;;;;;;;;;;;2.90;99.90;;;;;;5092540;28;20449;-46
2022/04/11 05:34:32;;;;;;;;;;;3.00;99.90;;;;;;5093250;28;20325;-49
2022/04/11 05:36:57;;;;;;;;;;;3.00;99.90;;;;;;5092648;28;19930;-49
2022/04/11 05:39:22;;;;;;;;;;;3.10;99.90;;;;;;5092543;28;20464;-46
2022/04/11 05:41:48;;;;;;;;;;;3.10;99.90;;;;;;5093346;28;19908;-52
2022/04/11 05:44:14;;;;;;;;;;;3.10;99.90;;;;;;5093219;28;19947;-50
2022/04/11 05:46:39;;;;;;;;;;;3.10;99.90;;;;;;5092341;28;20387;-47
2022/04/11 05:49:04;;;;;;;;;;;3.10;99.90;;;;;;5092604;28;19912;-48
2022/04/11 05:51:30;;;;;;;;;;;3.20;99.90;;;;;;5093134;28;19908;-49
2022/04/11 05:53:55;;;;;;;;;;;3.20;99.90;;;;;;5092346;28;19915;-51
2022/04/11 05:56:21;;;;;;;;;;;3.20;99.90;;;;;;5092811;28;19916;-47
2022/04/11 05:58:46;;;;;;;;;;;3.20;99.90;;;;;;5092960;28;19908;-47
2022/04/11 06:01:12;;;;;;;;;;;3.20;99.90;;;;;;5091985;28;19915;-50
2022/04/11 06:03:37;;;;;;;;;;;3.30;99.90;;;;;;5092812;28;19912;-48
2022/04/11 06:06:03;;;;;;;;;;;3.30;99.90;;;;;;5092711;28;19908;-51
2022/04/11 06:08:28;;;;;;;;;;;3.40;99.90;;;;;;5091657;28;20094;-46
2022/04/11 06:10:54;;;;;;;;;;;3.40;99.90;;;;;;5092710;28;19955;-47
2022/04/11 06:13:19;;;;;;;;;;;3.50;99.90;;;;;;5092600;28;19923;-50
2022/04/11 06:15:45;;;;;;;;;;;3.50;99.90;;;;;;5091762;28;19917;-48
2022/04/11 06:18:10;;;;;;;;;;;3.60;99.90;;;;;;5092297;28;20287;-47
2022/04/11 06:20:36;;;;;;;;;;;3.70;99.90;;;;;;5093598;28;20332;-47
2022/04/11 06:23:03;;;;;;;;;;;3.70;99.90;;;;;;5112057;28;19912;-49
2022/04/11 06:25:28;;;;;;;;;;;3.70;99.90;;;;;;5071937;28;19913;-48
2022/04/11 06:27:53;;;;;;;;;;;3.80;99.90;;;;;;5080507;28;19916;-51
2022/04/11 06:30:19;;;;;;;;;;;3.90;99.90;;;;;;5103965;28;19908;-50
2022/04/11 06:32:44;;;;;;;;;;;4.00;99.90;;;;;;5094354;28;19915;-46
2022/04/11 06:35:10;;;;;;;;;;;4.10;99.90;;;;;;5092996;28;19923;-49
2022/04/11 06:37:35;;;;;;;;;;;4.10;99.90;;;;;;5092223;28;20389;-50
2022/04/11 06:40:02;;;;;;;;;;;4.10;99.90;;;;;;5092099;28;19908;-49
2022/04/11 06:42:28;;;;;;;;;;;4.20;99.90;;;;;;5091665;28;19977;-47
2022/04/11 06:44:54;;;;;;;;;;;4.30;99.90;;;;;;5090757;28;19916;-48
2022/04/11 06:47:21;;;;;;;;;;;4.40;99.90;;;;;;5090941;28;19923;-51
2022/04/11 06:49:47;;;;;;;;;;;4.40;99.90;;;;;;5089657;28;19908;-49
2022/04/11 06:52:13;;;;;;;;;;;4.50;99.90;;;;;;5090811;28;20329;-48
2022/04/11 06:54:38;;;;;;;;;;;4.50;99.90;;;;;;5090338;28;19908;-50
2022/04/11 06:57:04;;;;;;;;;;;4.60;99.90;;;;;;5089092;28;20282;-48
2022/04/11 06:59:29;;;;;;;;;;;4.70;99.90;;;;;;5092050;28;19908;-51
2022/04/11 07:01:55;;;;;;;;;;;4.70;99.90;;;;;;5092042;28;19908;-49
2022/04/11 07:04:21;;;;;;;;;;;4.80;99.90;;;;;;5091562;28;19908;-49
2022/04/11 07:06:47;;;;;;;;;;;4.80;99.90;;;;;;5091965;28;19909;-48
2022/04/11 07:09:12;;;;;;;;;;;4.90;99.90;;;;;;5092132;28;19916;-48
2022/04/11 07:11:38;;;;;;;;;;;5.00;99.90;;;;;;5090577;28;19981;-48
2022/04/11 07:14:04;;;;;;;;;;;5.00;99.90;;;;;;5107417;28;20391;-50
2022/04/11 07:16:29;;;;;;;;;;;5.10;99.90;;;;;;5110593;28;19916;-49
2022/04/11 07:18:55;;;;;;;;;;;5.20;99.90;;;;;;5091071;28;19915;-48
2022/04/11 07:21:20;;;;;;;;;;;5.30;99.90;;;;;;5078159;28;19908;-48
2022/04/11 07:23:46;;;;;;;;;;;5.40;99.90;;;;;;5095976;28;19912;-49
2022/04/11 07:26:11;;;;;;;;;;;5.50;99.90;;;;;;5095401;28;20006;-48
2022/04/11 07:28:37;;;;;;;;;;;5.50;99.90;;;;;;5096976;28;19908;-46
2022/04/11 07:31:02;;;;;;;;;;;5.60;99.90;;;;;;5116643;28;19908;-49
2022/04/11 07:33:27;;;;;;;;;;;5.70;99.90;;;;;;5115642;28;20363;-48
2022/04/11 07:35:53;;;;;;;;;;;5.80;99.90;;;;;;5115903;28;19955;-49
2022/04/11 07:38:19;;;;;;;;;;;5.90;99.90;;;;;;5116276;28;19931;-50
2022/04/11 07:40:44;;;;;;;;;;;6.00;99.90;;;;;;5115146;28;19919;-52
2022/04/11 07:43:10;;;;;;;;;;;6.00;99.90;;;;;;5116230;28;19908;-48
2022/04/11 07:45:35;;;;;;;;;;;6.10;99.90;;;;;;5115296;28;20358;-50
2022/04/11 07:48:01;;;;;;;;;;;6.20;99.90;;;;;;5115319;28;19953;-51
2022/04/11 07:50:27;;;;;;;;;;;6.40;99.90;;;;;;5099067;28;20002;-50
2022/04/11 07:52:53;;;;;;;;;;;6.50;99.90;;;;;;5114992;28;19908;-47
2022/04/11 07:55:18;;;;;;;;;;;6.50;99.90;;;;;;5105049;28;19922;-48
2022/04/11 07:57:44;;;;;;;;;;;6.70;99.90;;;;;;5095017;28;19908;-44
2022/04/11 08:00:10;;;;;;;;;;;6.80;99.90;;;;;;5100142;28;19953;-49
2022/04/11 08:02:36;;;;;;;;;;;6.90;99.90;;;;;;5115726;28;19943;-47
2022/04/11 08:05:02;;;;;;;;;;;7.00;99.90;;;;;;5115950;28;19965;-49
2022/04/11 08:07:30;;;;;;;;;;;7.20;99.90;;;;;;5114976;28;20407;-46
2022/04/11 08:09:55;;;;;;;;;;;7.30;99.90;;;;;;5115418;28;20150;-47
2022/04/11 08:12:21;;;;;;;;;;;7.40;99.90;;;;;;5115735;28;20211;-48
2022/04/11 08:14:46;;;;;;;;;;;7.50;99.90;;;;;;5114390;28;19981;-50
2022/04/11 08:17:12;;;;;;;;;;;7.60;99.90;;;;;;5115823;28;20381;-46
2022/04/11 08:19:37;;;;;;;;;;;7.70;99.90;;;;;;5115297;28;20388;-47
2022/04/11 08:22:03;;;;;;;;;;;7.80;99.90;;;;;;5114819;28;20251;-48
2022/04/11 08:24:29;;;;;;;;;;;7.90;99.90;;;;;;5115352;28;19908;-49
2022/04/11 08:26:58;;;;;;;;;;;8.00;99.90;;;;;;5114285;28;20004;-48
2022/04/11 08:29:24;;;;;;;;;;;8.10;99.90;;;;;;5097309;28;20004;-50
2022/04/11 08:31:49;;;;;;;;;;;8.20;99.90;;;;;;5090469;28;19912;-49
2022/04/11 08:34:15;;;;;;;;;;;8.30;99.90;;;;;;5090577;28;19923;-52
2022/04/11 08:36:40;;;;;;;;;;;8.40;99.90;;;;;;5090947;28;20290;-51
2022/04/11 08:39:06;;;;;;;;;;;8.50;99.90;;;;;;5094081;28;19951;-48
2022/04/11 08:41:33;;;;;;;;;;;8.60;99.90;;;;;;5092864;28;19912;-48
2022/04/11 08:44:00;;;;;;;;;;;8.80;99.90;;;;;;5093149;28;20336;-47
2022/04/11 08:46:25;;;;;;;;;;;8.90;99.90;;;;;;5093400;28;19908;-49
2022/04/11 08:48:51;;;;;;;;;;;9.10;99.90;;;;;;5092328;28;19961;-51
2022/04/11 08:51:16;;;;;;;;;;;9.20;99.90;;;;;;5094543;28;20378;-49
2022/04/11 08:53:42;;;;;;;;;;;9.30;99.90;;;;;;5094415;28;19912;-48
2022/04/11 08:56:08;;;;;;;;;;;9.40;99.90;;;;;;5093232;28;19950;-46
2022/04/11 08:58:34;;;;;;;;;;;9.50;99.90;;;;;;5093768;28;19947;-45
2022/04/11 09:01:00;;;;;;;;;;;9.70;99.90;;;;;;5093723;28;19908;-48
2022/04/11 09:03:25;;;;;;;;;;;9.80;99.90;;;;;;5094081;28;20372;-48
2022/04/11 09:06:04;;;;;;;;;;;9.90;99.90;;;;;;5093790;28;19918;-47
2022/04/11 09:08:39;;;;;;;;;;;10.10;99.90;;;;;;5093659;28;19912;-49
2022/04/11 09:11:05;;;;;;;;;;;10.20;99.90;;;;;;5076223;28;19924;-50
2022/04/11 09:13:46;;;;;;;;;;;10.30;99.90;;;;;;5094860;28;19938;-47
2022/04/11 09:16:11;;;;;;;;;;;10.30;99.90;;;;;;5094188;28;20278;-46
2022/04/11 09:18:46;;;;;;;;;;;10.40;99.90;;;;;;5092965;28;19908;-52
2022/04/11 09:21:12;;;;;;;;;;;10.50;99.90;;;;;;5093974;28;19915;-50
2022/04/11 09:23:37;;;;;;;;;;;10.50;99.90;;;;;;5093679;28;19908;-47
2022/04/11 09:26:15;;;;;;;;;;;10.60;99.90;;;;;;5092500;28;19912;-47
2022/04/11 09:28:41;;;;;;;;;;;10.70;97.30;;;;;;5093769;28;19998;-48
2022/04/11 09:31:07;;;;;;;;;;;10.90;94.20;;;;;;5093433;28;20402;-48
2022/04/11 09:33:39;;;;;;;;;;;11.00;93.60;;;;;;5094163;28;20061;-46
2022/04/11 09:36:05;;;;;;;;;;;11.10;85.20;;;;;;5093448;28;20355;-49
2022/04/11 09:38:35;;;;;;;;;;;11.20;81.10;;;;;;5093761;28;19953;-48
2022/04/11 09:41:01;;;;;;;;;;;11.30;83.00;;;;;;5093936;28;20444;-49
2022/04/11 09:43:28;;;;;;;;;;;11.40;81.70;;;;;;5093356;28;19908;-48
2022/04/11 09:45:54;;;;;;;;;;;11.40;72.50;;;;;;5093409;28;19970;-46
2022/04/11 09:48:21;;;;;;;;;;;11.50;85.40;;;;;;5094106;28;19908;-49
2022/04/11 09:50:47;;;;;;;;;;;11.60;90.60;;;;;;5093610;28;19908;-47
2022/04/11 09:53:17;;;;;;;;;;;11.70;88.90;;;;;;5093391;28;20002;-48
2022/04/11 09:55:43;;;;;;;;;;;11.80;74.50;;;;;;5093468;28;20027;-47
2022/04/11 09:58:09;;;;;;;;;;;11.80;76.00;;;;;;5093545;28;19908;-47
2022/04/11 10:00:36;;;;;;;;;;;11.90;78.60;;;;;;5092883;28;19919;-47
2022/04/11 10:03:03;;;;;;;;;;;12.00;74.00;;;;;;5092572;28;20359;-44
2022/04/11 10:05:29;;;;;;;;;;;12.00;76.60;;;;;;5092781;28;19922;-46
2022/04/11 10:07:55;;;;;;;;;;;12.10;84.60;;;;;;5092878;28;19916;-45
2022/04/11 10:10:21;;;;;;;;;;;12.30;86.50;;;;;;5093702;28;19994;-46
2022/04/11 10:12:47;;;;;;;;;;;12.40;88.40;;;;;;5093242;28;20261;-47
2022/04/11 10:15:13;;;;;;;;;;;12.40;70.30;;;;;;5092999;28;20351;-47
2022/04/11 10:17:38;;;;;;;;;;;12.40;67.90;;;;;;5093282;28;20029;-46
2022/04/11 10:20:04;;;;;;;;;;;12.50;67.60;;;;;;5093153;28;19912;-46
2022/04/11 10:22:33;;;;;;;;;;;12.60;63.90;;;;;;5092563;28;19995;-48
2022/04/11 10:25:04;;;;;;;;;;;12.70;72.50;;;;;;5092469;28;19939;-47
2022/04/11 10:27:30;;;;;;;;;;;12.80;72.40;;;;;;5092516;28;20778;-48
2022/04/11 10:29:56;;;;;;;;;;;12.90;65.70;;;;;;5093084;28;20015;-47
2022/04/11 10:32:22;;;;;;;;;;;12.80;62.50;;;;;;5093123;28;20359;-46
2022/04/11 10:34:56;;;;;;;;;;;12.90;67.40;;;;;;5092283;28;20052;-46
2022/04/11 10:37:26;;;;;;;;;;;13.00;67.50;;;;;;5092709;28;19921;-47
2022/04/11 10:39:52;;;;;;;;;;;13.20;65.60;;;;;;5092835;28;20306;-49
2022/04/11 10:42:20;;;;;;;;;;;13.30;65.10;;;;;;5092636;28;19953;-46
2022/04/11 10:44:50;;;;;;;;;;;13.40;63.90;;;;;;5092748;28;20007;-47
2022/04/11 10:47:15;;;;;;;;;;;13.40;61.50;;;;;;5093073;28;19919;-47
2022/04/11 10:49:58;;;;;;;;;;;13.50;65.20;;;;;;5092336;28;19908;-50
2022/04/11 10:52:31;;;;;;;;;;;13.60;58.90;;;;;;5093851;28;19915;-46
2022/04/11 10:55:09;;;;;;;;;;;13.60;62.00;;;;;;5092055;28;20462;-45
2022/04/11 10:57:35;;;;;;;;;;;13.80;65.20;;;;;;5092173;28;19916;-45
2022/04/11 11:00:17;;;;;;;;;;;13.80;63.60;;;;;;5092115;28;19920;-46
2022/04/11 11:02:52;;;;;;;;;;;13.90;63.00;;;;;;5089906;28;19940;-47
2022/04/11 11:05:27;;;;;;;;;;;13.90;60.20;;;;;;5089331;28;20430;-49
2022/04/11 11:08:07;;;;;;;;;;;14.00;62.40;;;;;;5088925;28;19961;-46
2022/04/11 11:10:55;;;;;;;;;;;14.00;60.80;;;;;;5089525;28;19966;-45
2022/04/11 11:13:27;;;;;;;;;;;14.10;61.20;;;;;;5092406;28;19961;-44
2022/04/11 11:16:17;;;;;;;;;;;14.20;62.50;;;;;;5091871;28;20019;-48
2022/04/11 11:18:46;;;;;;;;;;;14.40;62.50;;;;;;5081650;28;20415;-49
2022/04/11 11:21:12;;;;;;;;;;;14.50;63.50;;;;;;5092882;28;20007;-47
2022/04/11 11:23:38;;;;;;;;;;;14.60;63.30;;;;;;5091771;28;19973;-45
2022/04/11 11:26:10;;;;;;;;;;;14.70;66.10;;;;;;5092793;28;20354;-48
2022/04/11 11:28:37;;;;;;;;;;;14.70;62.10;;;;;;5092369;28;19908;-45
2022/04/11 11:31:03;;;;;;;;;;;14.80;67.00;;;;;;5091563;28;19908;-49
2022/04/11 11:33:28;;;;;;;;;;;14.80;58.00;;;;;;5091610;28;19915;-49
2022/04/11 11:35:55;;;;;;;;;;;15.00;65.50;;;;;;5091301;28;19920;-48
2022/04/11 11:38:22;;;;;;;;;;;15.10;61.90;;;;;;5091837;28;20343;-48
2022/04/11 11:40:55;;;;;;;;;;;15.10;58.70;;;;;;5092422;28;20382;-46
2022/04/11 11:43:21;;;;;;;;;;;15.00;58.90;;;;;;5092414;28;19908;-46
2022/04/11 11:45:47;;;;;;;;;;;15.00;60.30;;;;;;5091058;28;19923;-53
2022/04/11 11:48:22;;;;;;;;;;;15.00;60.70;;;;;;5092276;28;19908;-48
2022/04/11 11:50:48;;;;;;;;;;;15.20;64.40;;;;;;5092223;28;20351;-49
2022/04/11 11:53:13;;;;;;;;;;;15.20;60.60;;;;;;5090874;28;20019;-49
2022/04/11 11:55:52;;;;;;;;;;;15.30;61.30;;;;;;5091379;28;19916;-47
2022/04/11 11:58:18;;;;;;;;;;;15.30;56.60;;;;;;5091426;28;20007;-47
2022/04/11 12:00:47;;;;;;;;;;;15.60;59.50;;;;;;5091443;28;19908;-48
2022/04/11 12:05:58;;;;;;;;;;;15.80;60.00;;;;;;5093152;28;19974;-49
2022/04/11 12:08:23;;;;;;;;;;;15.90;62.50;;;;;;5095729;28;19908;-48
2022/04/11 12:10:52;;;;;;;;;;;16.00;59.70;;;;;;5095830;28;19908;-47
2022/04/11 12:13:21;;;;;;;;;;;16.10;61.30;;;;;;5095092;28;19908;-50
2022/04/11 12:15:47;;;;;;;;;;;16.10;55.90;;;;;;5095678;28;19917;-50
2022/04/11 12:18:15;;;;;;;;;;;16.00;57.70;;;;;;5095707;28;19915;-48
2022/04/11 12:20:40;;;;;;;;;;;16.00;54.70;;;;;;5094817;28;19965;-47
2022/04/11 12:23:10;;;;;;;;;;;16.00;52.20;;;;;;5095628;28;19908;-48
2022/04/11 12:25:40;;;;;;;;;;;15.90;53.80;;;;;;5095368;28;19911;-49
2022/04/11 12:28:19;;;;;;;;;;;16.00;58.30;;;;;;5094637;28;20271;-48
2022/04/11 12:31:03;;;;;;;;;;;16.10;55.70;;;;;;5096050;28;20255;-46
2022/04/11 12:33:33;;;;;;;;;;;16.30;58.40;;;;;;5095079;28;19912;-44
2022/04/11 12:36:04;;;;;;;;;;;16.30;57.80;;;;;;5094452;28;19989;-45
2022/04/11 12:38:48;;;;;;;;;;;16.50;59.10;;;;;;5095504;28;20379;-44
2022/04/11 12:41:27;;;;;;;;;;;16.50;56.80;;;;;;5095236;28;19912;-46
2022/04/11 12:44:11;;;;;;;;;;;16.60;54.20;;;;;;5095884;28;19915;-43
2022/04/11 12:46:37;;;;;;;;;;;16.50;54.90;;;;;;5095877;28;20260;-50
2022/04/11 12:49:04;;;;;;;;;;;16.70;61.30;;;;;;5095020;28;20010;-44
2022/04/11 12:51:29;;;;;;;;;;;16.80;60.90;;;;;;5095403;28;19919;-48
2022/04/11 12:54:01;;;;;;;;;;;16.90;56.60;;;;;;5095801;28;19908;-46
2022/04/11 12:56:37;;;;;;;;;;;17.00;59.50;;;;;;5095157;28;19924;-44
2022/04/11 12:59:03;;;;;;;;;;;17.20;60.00;;;;;;5095684;28;19908;-46
2022/04/11 13:01:47;;;;;;;;;;;17.30;58.70;;;;;;5095534;28;19915;-48
2022/04/11 13:04:12;;;;;;;;;;;17.20;54.20;;;;;;5095045;28;19916;-47
2022/04/11 13:06:38;;;;;;;;;;;17.20;51.90;;;;;;5095388;28;20266;-47
2022/04/11 13:09:03;;;;;;;;;;;17.30;57.30;;;;;;5094988;28;19959;-48
2022/04/11 13:11:28;;;;;;;;;;;17.50;55.00;;;;;;5095283;28;19908;-47
2022/04/11 13:13:54;;;;;;;;;;;17.60;57.60;;;;;;5095414;28;19909;-48
2022/04/11 13:19:03;;;;;;;;;;;18.00;53.70;;;;;;5094938;28;19965;-47
2022/04/11 13:21:29;;;;;;;;;;;18.10;52.40;;;;;;5095147;28;20006;-50
2022/04/11 13:23:54;;;;;;;;;;;18.10;55.80;;;;;;5094731;28;19908;-48
2022/04/11 13:26:21;;;;;;;;;;;18.30;57.00;;;;;;5095147;28;19930;-46
2022/04/11 13:28:46;;;;;;;;;;;18.50;56.70;;;;;;5094715;28;19920;-48
2022/04/11 13:31:12;;;;;;;;;;;18.50;51.50;;;;;;5094586;28;19919;-48
2022/04/11 13:33:37;;;;;;;;;;;18.60;58.00;;;;;;5094862;28;19908;-49
2022/04/11 13:36:03;;;;;;;;;;;18.60;56.40;;;;;;5094396;28;19938;-52
2022/04/11 13:38:28;;;;;;;;;;;18.70;51.50;;;;;;5094365;28;19987;-46
2022/04/11 13:40:54;;;;;;;;;;;18.80;50.80;;;;;;5094427;28;20420;-49
2022/04/11 13:43:19;;;;;;;;;;;19.00;54.40;;;;;;5094694;28;20232;-48
2022/04/11 13:45:44;;;;;;;;;;;19.00;55.70;;;;;;5094163;28;19912;-48
2022/04/11 13:48:10;;;;;;;;;;;19.20;50.10;;;;;;5094623;28;19908;-49
2022/04/11 13:50:36;;;;;;;;;;;19.40;53.70;;;;;;5094530;28;19933;-49
2022/04/11 13:53:03;;;;;;;;;;;19.50;51.70;;;;;;5094282;28;20270;-51
2022/04/11 13:55:28;;;;;;;;;;;19.60;52.00;;;;;;5094624;28;19912;-47
2022/04/11 13:57:53;;;;;;;;;;;19.40;45.00;;;;;;5094445;28;20068;-45
2022/04/11 14:00:19;;;;;;;;;;;19.40;51.60;;;;;;5093914;28;19912;-46
2022/04/11 14:02:44;;;;;;;;;;;19.70;53.30;;;;;;5094240;28;20372;-48
2022/04/11 14:05:10;;;;;;;;;;;20.00;53.90;;;;;;5094439;28;20404;-49
2022/04/11 14:07:35;;;;;;;;;;;20.20;52.50;;;;;;5093592;28;20333;-51
2022/04/11 14:10:01;;;;;;;;;;;20.20;52.30;;;;;;5093316;28;19909;-45
2022/04/11 14:12:27;;;;;;;;;;;20.40;51.60;;;;;;5092983;28;19912;-47
2022/04/11 14:14:52;;;;;;;;;;;20.60;52.70;;;;;;5093580;28;19912;-48
2022/04/11 14:17:17;;;;;;;;;;;20.60;49.20;;;;;;5093755;28;19938;-51
2022/04/11 14:19:43;;;;;;;;;;;20.70;53.00;;;;;;5093309;28;19913;-48
2022/04/11 14:22:08;;;;;;;;;;;20.60;43.20;;;;;;5094015;28;19981;-47
2022/04/11 14:24:34;;;;;;;;;;;20.60;51.20;;;;;;5093892;28;19914;-50
2022/04/11 14:26:59;;;;;;;;;;;20.70;46.10;;;;;;5093479;28;19912;-49
2022/04/11 14:29:25;;;;;;;;;;;20.90;49.20;;;;;;5093726;28;19919;-47